Time;durP1;ratioP1;P1;durP2;ratioP2;P2;SDS_P1;SDS_P2;PMS_P1;PMS_P2;Temp;Humidity;BMP_temperature;BMP_pressure;BME280_temperature;BME280_humidity;BME280_pressure;Samples;Min_cycle;Max_cycle;Signal;HPM_P1;HPM_P2
2022/01/28 00:00:28;;;;;;;6.05;1.02;;;29.50;99.90;;;;;;5034432;28;20475;-76
2022/01/28 00:03:10;;;;;;;6.75;1.20;;;29.60;99.90;;;;;;5034691;28;20018;-78
2022/01/28 00:05:38;;;;;;;7.95;1.20;;;29.50;99.90;;;;;;5034453;28;20544;-78
2022/01/28 00:08:06;;;;;;;5.80;0.88;;;29.60;99.90;;;;;;5034567;28;20018;-78
2022/01/28 00:10:35;;;;;;;5.43;1.13;;;29.50;99.90;;;;;;5034424;28;20096;-79
2022/01/28 00:13:38;;;;;;;4.47;0.90;;;29.40;99.90;;;;;;5034225;28;20029;-79
2022/01/28 00:38:14;;;;;;;4.82;0.90;;;29.80;99.90;;;;;;5037027;28;20033;-77
2022/01/28 00:40:34;;;;;;;3.38;0.60;;;29.60;99.90;;;;;;5035732;28;20048;-77
2022/01/28 00:43:03;;;;;;;4.90;1.20;;;29.90;99.90;;;;;;5034302;28;20029;-78
2022/01/28 00:45:30;;;;;;;3.97;1.10;;;29.80;99.90;;;;;;5033652;28;20124;-77
2022/01/28 00:47:58;;;;;;;4.90;0.60;;;29.80;99.90;;;;;;5033532;28;20032;-78
2022/01/28 00:50:26;;;;;;;3.40;0.90;;;29.50;99.90;;;;;;5033737;28;20104;-79
2022/01/28 00:52:53;;;;;;;4.93;0.93;;;29.70;99.90;;;;;;5032627;28;20021;-77
2022/01/28 00:55:21;;;;;;;3.50;0.85;;;29.80;99.90;;;;;;5032363;28;20120;-81
2022/01/28 00:57:48;;;;;;;3.35;0.75;;;29.90;99.90;;;;;;5032563;28;20029;-78
2022/01/28 01:00:16;;;;;;;4.43;0.98;;;29.90;99.90;;;;;;5032208;28;20029;-78
2022/01/28 01:02:43;;;;;;;3.45;0.80;;;29.90;99.90;;;;;;5033394;28;20450;-76
2022/01/28 01:05:14;;;;;;;3.30;0.50;;;29.60;99.90;;;;;;5031866;28;20051;-77
2022/01/28 01:07:41;;;;;;;3.88;0.88;;;29.90;99.90;;;;;;5034041;28;20017;-78
2022/01/28 01:10:10;;;;;;;3.45;0.90;;;29.70;99.90;;;;;;5033386;28;20091;-79
2022/01/28 01:12:43;;;;;;;6.03;1.20;;;29.80;99.90;;;;;;5033189;28;20107;-79
2022/01/28 01:15:15;;;;;;;8.57;1.50;;;29.80;99.90;;;;;;5033582;28;20051;-79
2022/01/28 01:18:29;;;;;;;5.07;1.00;;;29.90;99.90;;;;;;5032355;28;20072;-77
2022/01/28 01:20:50;;;;;;;5.72;1.45;;;29.90;99.90;;;;;;5033263;28;20041;-78
2022/01/28 01:23:31;;;;;;;6.75;1.05;;;30.20;99.90;;;;;;5033378;28;20022;-78
2022/01/28 01:28:34;;;;;;;4.13;0.90;;;29.70;99.90;;;;;;5033522;28;20025;-76
2022/01/28 01:31:04;;;;;;;3.15;0.80;;;29.70;99.90;;;;;;5032125;28;20022;-78
2022/01/28 01:33:38;;;;;;;4.25;0.70;;;29.70;99.90;;;;;;5033821;28;20396;-78
2022/01/28 01:36:05;;;;;;;4.38;0.90;;;30.10;99.90;;;;;;5033470;28;20510;-78
2022/01/28 01:38:36;;;;;;;5.32;0.80;;;30.00;99.90;;;;;;5033462;28;20025;-78
2022/01/28 01:41:08;;;;;;;2.58;0.50;;;30.50;99.90;;;;;;5033807;28;20029;-79
2022/01/28 01:44:03;;;;;;;3.65;0.60;;;30.50;99.90;;;;;;5033267;28;20037;-78
2022/01/28 01:52:03;;;;;;;3.88;0.60;;;30.20;99.90;;;;;;5034087;28;20079;-78
2022/01/28 01:54:52;;;;;;;6.22;1.90;;;30.10;99.90;;;;;;5032948;28;20413;-78
2022/01/28 01:57:20;;;;;;;3.92;0.60;;;30.10;99.90;;;;;;5036749;28;20027;-77
2022/01/28 01:59:48;;;;;;;3.75;0.75;;;30.00;99.90;;;;;;5034981;28;20047;-76
2022/01/28 02:02:16;;;;;;;4.78;0.70;;;29.90;99.90;;;;;;5035579;28;20536;-76
2022/01/28 02:04:43;;;;;;;4.57;0.85;;;30.30;99.90;;;;;;5035184;28;20121;-77
2022/01/28 02:07:15;;;;;;;6.45;1.00;;;30.40;99.90;;;;;;5036552;28;20474;-76
2022/01/28 02:09:43;;;;;;;4.55;0.57;;;30.60;99.90;;;;;;5035020;28;20029;-76
2022/01/28 02:12:11;;;;;;;5.90;0.88;;;30.60;99.90;;;;;;5036224;28;20425;-76
2022/01/28 02:14:38;;;;;;;4.47;0.70;;;30.50;99.90;;;;;;5034863;28;20028;-77
2022/01/28 02:17:07;;;;;;;5.50;0.70;;;30.50;99.90;;;;;;5036154;28;20558;-76
2022/01/28 02:19:34;;;;;;;3.75;0.80;;;30.90;99.90;;;;;;5036021;28;20076;-77
2022/01/28 02:22:02;;;;;;;4.50;0.93;;;31.00;99.90;;;;;;5036513;28;20061;-77
2022/01/28 02:24:40;;;;;;;4.00;0.77;;;31.20;99.90;;;;;;5034583;28;20048;-76
2022/01/28 02:27:08;;;;;;;4.95;1.02;;;31.20;99.90;;;;;;5035976;28;20159;-78
2022/01/28 02:29:36;;;;;;;3.35;0.90;;;31.10;99.90;;;;;;5035803;28;20018;-77
2022/01/28 02:32:09;;;;;;;2.35;0.52;;;31.00;99.90;;;;;;5034735;28;20490;-77
2022/01/28 02:34:38;;;;;;;3.35;0.50;;;31.30;99.90;;;;;;5035791;28;20429;-78
2022/01/28 02:37:06;;;;;;;1.58;0.50;;;31.20;99.90;;;;;;5034315;28;20025;-77
2022/01/28 02:39:33;;;;;;;4.47;0.90;;;31.40;99.90;;;;;;5035772;28;20486;-77
2022/01/28 02:42:14;;;;;;;3.42;0.90;;;31.50;99.90;;;;;;5035844;28;20049;-76
2022/01/28 02:44:47;;;;;;;5.38;0.98;;;31.40;99.90;;;;;;5034548;28;20061;-78
2022/01/28 02:47:29;;;;;;;4.40;0.82;;;31.00;99.90;;;;;;5035485;28;20117;-80
2022/01/28 02:49:56;;;;;;;2.85;0.88;;;31.10;99.90;;;;;;5035623;28;20014;-76
2022/01/28 02:52:35;;;;;;;2.38;0.47;;;30.70;99.90;;;;;;5035332;28;20072;-76
2022/01/28 02:55:08;;;;;;;2.28;0.63;;;31.00;99.90;;;;;;5035551;28;20017;-77
2022/01/28 02:57:39;;;;;;;3.75;0.80;;;31.20;99.90;;;;;;5035543;28;20018;-78
2022/01/28 03:00:07;;;;;;;3.65;0.80;;;31.70;99.90;;;;;;5035798;28;20029;-79
2022/01/28 03:02:34;;;;;;;4.40;0.68;;;31.30;99.90;;;;;;5035689;28;20048;-77
2022/01/28 03:05:26;;;;;;;3.83;0.70;;;31.20;99.90;;;;;;5034157;28;20044;-76
2022/01/28 03:07:49;;;;;;;2.95;0.80;;;31.30;99.90;;;;;;5034177;28;20498;-78
2022/01/28 03:11:24;;;;;;;7.18;0.88;;;31.50;99.90;;;;;;5035498;28;20025;-78
2022/01/28 03:15:38;;;;;;;6.18;0.93;;;31.90;99.90;;;;;;5035407;28;20361;-77
2022/01/28 03:18:16;;;;;;;3.10;0.47;;;32.00;99.90;;;;;;5035210;28;20475;-77
2022/01/28 03:23:19;;;;;;;2.08;0.55;;;32.10;99.90;;;;;;5035266;28;20021;-77
2022/01/28 03:25:48;;;;;;;2.47;0.57;;;31.80;99.90;;;;;;5035163;28;20120;-76
2022/01/28 03:28:18;;;;;;;4.85;0.90;;;31.80;99.90;;;;;;5034934;28;20049;-75
2022/01/28 03:30:46;;;;;;;4.38;0.70;;;31.70;99.90;;;;;;5034998;28;20364;-75
2022/01/28 03:33:13;;;;;;;5.10;0.50;;;31.30;99.90;;;;;;5033416;28;20057;-74
2022/01/28 03:35:40;;;;;;;3.22;0.63;;;31.30;99.90;;;;;;5034841;28;20509;-74
2022/01/28 03:38:12;;;;;;;3.70;0.70;;;31.10;99.90;;;;;;5034765;28;20037;-74
2022/01/28 03:40:42;;;;;;;2.72;0.50;;;31.40;99.90;;;;;;5034864;28;20368;-74
2022/01/28 03:43:09;;;;;;;3.85;1.20;;;31.60;99.90;;;;;;5034668;28;20029;-74
2022/01/28 03:45:36;;;;;;;3.60;0.52;;;31.20;99.90;;;;;;5034393;28;20054;-74
2022/01/28 03:48:04;;;;;;;3.35;0.90;;;30.90;99.90;;;;;;5034544;28;20538;-75
2022/01/28 03:50:33;;;;;;;2.50;0.70;;;30.70;99.90;;;;;;5034561;28;20025;-77
2022/01/28 03:53:03;;;;;;;2.42;0.50;;;31.10;99.90;;;;;;5033172;28;20409;-77
2022/01/28 03:55:31;;;;;;;2.83;0.50;;;31.60;99.90;;;;;;5034501;28;20379;-75
2022/01/28 03:57:58;;;;;;;2.78;0.70;;;32.00;99.90;;;;;;5033130;28;20026;-77
2022/01/28 04:00:29;;;;;;;5.00;0.82;;;31.80;99.90;;;;;;5033193;28;20030;-77
2022/01/28 04:03:12;;;;;;;3.47;0.70;;;31.50;99.90;;;;;;5034497;28;20072;-78
2022/01/28 04:11:25;;;;;;;4.18;0.73;;;31.30;99.90;;;;;;5032981;28;20021;-78
2022/01/28 04:11:33;;;;;;;5.10;0.68;;;31.40;99.90;;;;;;5034308;28;20036;-76
2022/01/28 04:14:14;;;;;;;4.97;0.70;;;31.50;99.90;;;;;;5032979;28;20375;-77
2022/01/28 04:17:23;;;;;;;5.18;0.73;;;31.50;99.90;;;;;;5034184;28;20609;-75
2022/01/28 04:19:31;;;;;;;;;;;31.20;99.90;;;;;;5033600;28;20048;-76
2022/01/28 04:21:58;;;;;;;3.35;0.68;;;31.00;99.90;;;;;;5034054;28;19905;-76
2022/01/28 04:24:25;;;;;;;4.47;0.57;;;30.60;99.90;;;;;;5033974;28;20036;-76
2022/01/28 04:26:53;;;;;;;4.45;0.65;;;30.50;99.90;;;;;;5033846;28;20482;-76
2022/01/28 04:29:20;;;;;;;3.08;0.75;;;30.40;99.90;;;;;;5032405;28;20021;-77
2022/01/28 04:31:48;;;;;;;2.75;0.50;;;29.90;99.90;;;;;;5033885;28;20504;-75
2022/01/28 04:34:17;;;;;;;4.50;0.57;;;30.00;99.90;;;;;;5032324;28;20109;-78
2022/01/28 04:37:01;;;;;;;2.70;0.68;;;30.30;99.90;;;;;;5033765;28;20159;-78
2022/01/28 04:47:27;;;;;;;2.92;0.70;;;30.30;99.90;;;;;;5033535;28;20041;-78
2022/01/28 04:50:08;;;;;;;3.45;0.85;;;30.60;99.90;;;;;;5033654;28;20022;-78
2022/01/28 05:11:28;;;;;;;7.43;1.60;;;31.20;99.90;;;;;;5033196;28;20449;-78
2022/01/28 05:17:18;;;;;;;2.95;0.55;;;31.10;99.90;;;;;;5033270;28;20080;-78
2022/01/28 05:27:59;;;;;;;3.25;0.52;;;30.40;99.90;;;;;;5033136;28;20024;-78
2022/01/28 05:30:26;;;;;;;5.75;0.85;;;30.00;99.90;;;;;;5031062;28;20536;-78
2022/01/28 05:32:54;;;;;;;4.47;0.60;;;29.70;99.90;;;;;;5033018;28;20052;-79
2022/01/28 05:35:22;;;;;;;4.47;1.02;;;29.80;99.90;;;;;;5033236;28;20037;-78
2022/01/28 05:37:49;;;;;;;5.00;0.70;;;29.80;99.90;;;;;;5033134;28;20025;-76
2022/01/28 05:40:17;;;;;;;2.92;0.57;;;29.60;99.90;;;;;;5031560;28;20032;-77
2022/01/28 05:42:44;;;;;;;7.07;0.75;;;29.60;99.90;;;;;;5031457;28;20128;-77
2022/01/28 05:45:11;;;;;;;4.03;0.80;;;29.80;99.90;;;;;;5032388;28;20053;-77
2022/01/28 05:47:39;;;;;;;3.85;0.60;;;30.10;99.90;;;;;;5032804;28;20526;-76
2022/01/28 05:50:07;;;;;;;5.07;0.70;;;30.60;99.90;;;;;;5032701;28;20505;-77
2022/01/28 05:52:34;;;;;;;3.70;0.60;;;30.40;99.90;;;;;;5033187;28;20153;-78
2022/01/28 05:55:02;;;;;;;3.13;0.55;;;30.40;99.90;;;;;;5032543;28;20025;-78
2022/01/28 05:57:29;;;;;;;5.13;0.60;;;30.10;99.90;;;;;;5032699;28;20022;-78
2022/01/28 05:59:57;;;;;;;4.20;0.68;;;30.30;99.90;;;;;;5032599;28;20017;-78
2022/01/28 06:02:24;;;;;;;4.25;0.70;;;30.40;99.90;;;;;;5031387;28;20486;-78
2022/01/28 06:04:52;;;;;;;3.78;0.68;;;30.70;99.90;;;;;;5032705;28;20029;-77
2022/01/28 06:07:21;;;;;;;5.75;1.08;;;30.60;99.90;;;;;;5031211;28;20079;-75
2022/01/28 06:09:48;;;;;;;4.78;0.63;;;30.80;99.90;;;;;;5031244;28;20036;-74
2022/01/28 06:12:15;;;;;;;2.35;0.60;;;30.40;99.90;;;;;;5032555;28;20072;-74
2022/01/28 06:14:43;;;;;;;4.13;0.77;;;30.50;99.90;;;;;;5031353;28;20021;-75
2022/01/28 06:17:10;;;;;;;3.70;0.63;;;29.90;99.90;;;;;;5032490;28;20024;-75
2022/01/28 06:19:37;;;;;;;3.33;0.50;;;30.00;99.90;;;;;;5032567;28;20029;-75
2022/01/28 06:22:05;;;;;;;5.07;0.63;;;29.60;99.90;;;;;;5031269;28;20053;-75
2022/01/28 06:24:32;;;;;;;5.35;1.27;;;29.80;99.90;;;;;;5032428;28;20032;-74
2022/01/28 06:27:00;;;;;;;5.05;0.93;;;29.70;99.90;;;;;;5032290;28;20049;-74
2022/01/28 06:29:27;;;;;;;2.67;0.55;;;29.80;99.90;;;;;;5032471;28;20546;-74
2022/01/28 06:31:54;;;;;;;5.60;0.70;;;29.70;99.90;;;;;;5032352;28;20033;-75
2022/01/28 06:34:22;;;;;;;4.45;0.77;;;29.90;99.90;;;;;;5031029;28;20037;-74
2022/01/28 06:36:49;;;;;;;3.20;0.50;;;29.90;99.90;;;;;;5032756;28;20033;-75
2022/01/28 06:39:16;;;;;;;5.30;0.95;;;29.80;99.90;;;;;;5032442;28;20030;-75
2022/01/28 06:41:44;;;;;;;5.57;0.90;;;30.20;99.90;;;;;;5034406;28;20018;-75
2022/01/28 06:44:11;;;;;;;4.35;0.73;;;30.00;99.90;;;;;;5035910;28;20022;-75
2022/01/28 06:46:39;;;;;;;3.25;0.80;;;29.70;99.90;;;;;;5035633;28;20055;-75
2022/01/28 06:49:06;;;;;;;6.82;1.40;;;29.60;99.90;;;;;;5035646;28;20478;-74
2022/01/28 06:51:34;;;;;;;3.00;0.70;;;29.50;99.90;;;;;;5034296;28;20025;-74
2022/01/28 06:54:02;;;;;;;3.28;1.00;;;29.40;99.90;;;;;;5034320;28;20036;-75
2022/01/28 06:56:30;;;;;;;5.25;0.93;;;29.10;99.90;;;;;;5035530;28;20067;-75
2022/01/28 06:58:57;;;;;;;5.85;1.20;;;28.90;99.90;;;;;;5035598;28;20021;-75
2022/01/28 07:01:24;;;;;;;2.83;0.60;;;28.90;99.90;;;;;;5035385;28;20030;-75
2022/01/28 07:03:52;;;;;;;5.03;0.90;;;29.10;99.90;;;;;;5035380;28;20053;-75
2022/01/28 07:06:21;;;;;;;3.70;0.60;;;29.10;99.90;;;;;;5034126;28;20063;-75
2022/01/28 07:08:48;;;;;;;4.07;0.80;;;29.20;99.90;;;;;;5035317;28;20021;-75
2022/01/28 07:11:17;;;;;;;6.95;1.15;;;29.10;99.90;;;;;;5034404;28;20639;-75
2022/01/28 07:13:45;;;;;;;4.22;0.60;;;29.60;99.90;;;;;;5035228;28;20057;-75
2022/01/28 07:16:12;;;;;;;5.20;1.05;;;30.10;99.90;;;;;;5035352;28;20036;-75
2022/01/28 07:18:39;;;;;;;6.00;0.88;;;29.80;99.90;;;;;;5033758;28;20116;-75
2022/01/28 07:21:07;;;;;;;3.92;0.70;;;29.80;99.90;;;;;;5035125;28;20363;-76
2022/01/28 07:23:34;;;;;;;7.03;0.90;;;30.00;99.90;;;;;;5033830;28;20116;-76
2022/01/28 07:26:02;;;;;;;3.45;0.80;;;29.70;99.90;;;;;;5033754;28;20168;-76
2022/01/28 07:28:31;;;;;;;5.40;0.98;;;29.90;99.90;;;;;;5033877;28;20033;-77
2022/01/28 07:30:59;;;;;;;3.70;0.90;;;29.80;99.90;;;;;;5035270;28;20379;-77
2022/01/28 07:33:26;;;;;;;4.13;0.80;;;29.70;99.90;;;;;;5033742;28;20033;-76
2022/01/28 07:35:53;;;;;;;6.38;1.20;;;29.30;99.90;;;;;;5034943;28;20028;-75
2022/01/28 07:38:21;;;;;;;3.67;0.80;;;29.00;99.90;;;;;;5033466;28;20067;-75
2022/01/28 07:40:48;;;;;;;5.97;1.00;;;28.20;99.90;;;;;;5033583;28;20022;-74
2022/01/28 07:43:15;;;;;;;5.72;1.02;;;27.80;99.90;;;;;;5034694;28;20018;-74
2022/01/28 07:45:43;;;;;;;7.20;1.30;;;27.50;99.90;;;;;;5034716;28;20049;-75
2022/01/28 07:48:11;;;;;;;3.67;0.90;;;27.10;99.90;;;;;;5034533;28;20040;-74
2022/01/28 07:50:38;;;;;;;3.78;0.80;;;27.00;99.90;;;;;;5034683;28;20041;-76
2022/01/28 07:53:07;;;;;;;8.65;1.30;;;26.90;99.90;;;;;;5033794;28;20022;-75
2022/01/28 07:55:35;;;;;;;8.02;1.45;;;26.60;99.90;;;;;;5034490;28;20486;-76
2022/01/28 07:58:02;;;;;;;6.03;1.20;;;26.50;99.90;;;;;;5033176;28;20125;-76
2022/01/28 08:00:30;;;;;;;5.82;1.13;;;26.50;99.90;;;;;;5034589;28;20021;-77
2022/01/28 08:02:57;;;;;;;4.63;1.20;;;26.50;99.90;;;;;;5034407;28;20056;-76
2022/01/28 08:05:24;;;;;;;7.57;1.67;;;26.30;99.90;;;;;;5032954;28;20064;-78
2022/01/28 08:07:52;;;;;;;8.40;1.20;;;26.20;99.90;;;;;;5033122;28;20520;-75
2022/01/28 08:10:21;;;;;;;6.47;1.20;;;26.20;99.90;;;;;;5034206;28;20120;-75
2022/01/28 08:12:52;;;;;;;7.68;1.15;;;26.10;99.90;;;;;;5034186;28;20390;-74
2022/01/28 08:15:21;;;;;;;8.07;1.38;;;26.00;99.90;;;;;;5034045;28;20045;-76
2022/01/28 08:17:49;;;;;;;5.07;0.90;;;25.90;99.90;;;;;;5034145;28;20022;-76
2022/01/28 08:20:16;;;;;;;7.93;1.40;;;25.80;99.90;;;;;;5033956;28;20486;-75
2022/01/28 08:22:49;;;;;;;6.38;1.60;;;25.80;99.90;;;;;;5032605;28;20029;-75
2022/01/28 08:25:18;;;;;;;8.23;1.20;;;25.70;99.90;;;;;;5032485;28;20021;-75
2022/01/28 08:27:46;;;;;;;6.10;1.33;;;25.60;99.90;;;;;;5033895;28;20032;-76
2022/01/28 08:30:20;;;;;;;10.88;1.73;;;25.40;99.90;;;;;;5033701;28;20024;-75
2022/01/28 08:32:49;;;;;;;5.03;0.88;;;25.20;99.90;;;;;;5032554;28;20021;-75
2022/01/28 08:35:17;;;;;;;8.70;1.60;;;25.10;99.90;;;;;;5033606;28;20021;-76
2022/01/28 08:37:46;;;;;;;6.28;1.38;;;25.00;99.90;;;;;;5033774;28;20072;-76
2022/01/28 08:40:14;;;;;;;7.20;1.35;;;25.00;99.90;;;;;;5033475;28;20025;-75
2022/01/28 08:42:41;;;;;;;8.02;1.38;;;24.90;99.90;;;;;;5033626;28;20390;-74
2022/01/28 08:45:09;;;;;;;6.45;1.20;;;24.80;99.90;;;;;;5033300;28;20047;-76
2022/01/28 08:47:36;;;;;;;11.68;1.80;;;24.70;99.90;;;;;;5033500;28;20071;-75
2022/01/28 08:50:04;;;;;;;9.70;1.60;;;24.60;99.90;;;;;;5033351;28;20018;-75
2022/01/28 08:52:32;;;;;;;9.60;1.65;;;24.60;99.90;;;;;;5033515;28;20023;-76
2022/01/28 08:54:59;;;;;;;10.75;1.70;;;24.60;99.90;;;;;;5032111;28;20041;-75
2022/01/28 08:57:26;;;;;;;9.57;1.75;;;24.50;99.90;;;;;;5033416;28;20083;-75
2022/01/28 08:59:55;;;;;;;8.98;1.75;;;24.50;99.90;;;;;;5033305;28;20017;-75
2022/01/28 09:02:22;;;;;;;10.52;2.00;;;24.40;99.90;;;;;;5033308;28;20029;-76
2022/01/28 09:04:50;;;;;;;7.15;1.30;;;24.40;99.90;;;;;;5033068;28;20017;-76
2022/01/28 09:07:20;;;;;;;8.55;1.58;;;24.30;99.90;;;;;;5033157;28;20445;-76
2022/01/28 09:09:50;;;;;;;12.90;2.00;;;24.30;99.90;;;;;;5031839;28;20056;-76
2022/01/28 09:14:57;;;;;;;12.65;1.85;;;24.20;99.90;;;;;;5033262;28;20022;-75
2022/01/28 09:17:27;;;;;;;8.73;1.50;;;24.10;99.90;;;;;;5033100;28;20483;-77
2022/01/28 09:19:55;;;;;;;9.73;1.73;;;24.10;99.90;;;;;;5031767;28;20486;-75
2022/01/28 09:22:22;;;;;;;10.40;1.92;;;24.00;99.90;;;;;;5031681;28;20112;-76
2022/01/28 09:24:50;;;;;;;12.55;1.73;;;24.00;99.90;;;;;;5033014;28;20052;-77
2022/01/28 09:27:18;;;;;;;13.35;1.85;;;24.00;99.90;;;;;;5032837;28;20033;-77
2022/01/28 09:29:45;;;;;;;8.65;1.33;;;24.00;99.90;;;;;;5031802;28;20017;-77
2022/01/28 09:32:13;;;;;;;10.23;1.88;;;24.00;99.90;;;;;;5032923;28;20029;-76
2022/01/28 09:34:40;;;;;;;8.63;1.50;;;23.90;99.90;;;;;;5031518;28;20029;-76
2022/01/28 09:37:07;;;;;;;8.35;1.50;;;23.90;99.90;;;;;;5031703;28;20479;-76
2022/01/28 09:39:39;;;;;;;9.00;1.88;;;23.90;99.90;;;;;;5031664;28;20526;-76
2022/01/28 09:42:12;;;;;;;8.05;1.95;;;23.90;99.90;;;;;;5031575;28;20032;-76
2022/01/28 09:44:40;;;;;;;10.30;1.45;;;23.80;99.90;;;;;;5032652;28;20052;-75
2022/01/28 09:47:10;;;;;;;10.25;2.10;;;23.80;99.90;;;;;;5031416;28;20123;-76
2022/01/28 09:49:39;;;;;;;13.73;2.70;;;23.80;99.90;;;;;;5031533;28;20065;-77
2022/01/28 09:52:12;;;;;;;11.90;2.08;;;23.80;99.90;;;;;;5032698;28;20018;-77
2022/01/28 09:54:43;;;;;;;14.65;2.45;;;23.70;99.90;;;;;;5032729;28;20021;-77
2022/01/28 09:57:10;;;;;;;;;;;23.80;99.90;;;;;;5033220;28;20025;-77
2022/01/28 09:59:38;;;;;;;11.93;2.28;;;23.70;99.90;;;;;;5031342;28;19912;-76
2022/01/28 10:02:06;;;;;;;9.95;1.48;;;23.70;99.90;;;;;;5032558;28;20018;-77
2022/01/28 10:04:33;;;;;;;12.75;2.08;;;23.70;99.90;;;;;;5031104;28;20033;-77
2022/01/28 10:07:14;;;;;;;14.27;1.67;;;23.70;99.90;;;;;;5032423;28;20450;-77
2022/01/28 10:09:57;;;;;;;12.43;2.10;;;23.70;99.90;;;;;;5032528;28;20026;-75
2022/01/28 10:12:37;;;;;;;11.73;2.85;;;23.70;99.90;;;;;;5032506;28;20077;-76
2022/01/28 10:15:28;;;;;;;9.97;1.80;;;23.70;99.90;;;;;;5032571;28;20060;-76
2022/01/28 10:17:58;;;;;;;16.08;2.20;;;23.60;99.90;;;;;;5036290;28;20382;-75
2022/01/28 10:20:26;;;;;;;11.27;2.17;;;23.60;99.90;;;;;;5035121;28;20030;-75
2022/01/28 10:23:04;;;;;;;12.90;2.40;;;23.60;99.90;;;;;;5036390;28;20028;-76
2022/01/28 10:25:37;;;;;;;10.23;1.88;;;23.60;99.90;;;;;;5036232;28;20029;-76
2022/01/28 10:28:10;;;;;;;13.73;2.10;;;23.60;99.90;;;;;;5036264;28;20040;-75
2022/01/28 10:30:39;;;;;;;10.43;2.35;;;23.60;99.90;;;;;;5034886;28;20508;-76
2022/01/28 10:33:22;;;;;;;14.18;2.25;;;23.50;99.90;;;;;;5036088;28;20076;-76
2022/01/28 10:35:54;;;;;;;12.95;2.38;;;23.60;99.90;;;;;;5036109;28;20032;-77
2022/01/28 10:38:41;;;;;;;11.63;2.05;;;23.60;99.90;;;;;;5036034;28;20425;-77
2022/01/28 10:41:25;;;;;;;11.30;1.95;;;23.60;99.90;;;;;;5036149;28;20049;-77
2022/01/28 10:43:57;;;;;;;14.65;2.45;;;23.50;99.90;;;;;;5036010;28;20098;-76
2022/01/28 10:46:34;;;;;;;12.23;2.00;;;23.50;99.90;;;;;;5035582;28;20041;-76
2022/01/28 10:49:04;;;;;;;16.30;2.25;;;23.50;99.90;;;;;;5034477;28;20122;-76
2022/01/28 10:51:43;;;;;;;13.48;2.42;;;23.50;99.90;;;;;;5035871;28;20018;-75
2022/01/28 10:54:13;;;;;;;8.13;2.33;;;23.50;99.90;;;;;;5035867;28;20036;-78
2022/01/28 10:56:49;;;;;;;14.60;2.80;;;23.50;99.90;;;;;;5034449;28;20116;-77
2022/01/28 10:59:19;;;;;;;9.93;2.03;;;23.40;99.90;;;;;;5036277;28;20091;-77
2022/01/28 11:01:47;;;;;;;10.98;2.05;;;23.40;99.90;;;;;;5035072;28;20091;-79
2022/01/28 11:04:17;;;;;;;14.75;2.50;;;23.40;99.90;;;;;;5035551;28;20538;-80
2022/01/28 11:06:45;;;;;;;14.93;2.22;;;23.40;99.90;;;;;;5035929;28;20429;-80
2022/01/28 11:09:15;;;;;;;12.13;1.92;;;23.40;99.90;;;;;;5035747;28;20029;-79
2022/01/28 11:11:43;;;;;;;12.27;1.97;;;23.40;99.90;;;;;;5035718;28;20036;-79
2022/01/28 11:14:10;;;;;;;14.15;2.53;;;23.40;99.90;;;;;;5035906;28;20028;-79
2022/01/28 11:16:38;;;;;;;13.23;1.88;;;23.40;99.90;;;;;;5035788;28;20029;-79
2022/01/28 11:19:09;;;;;;;15.98;3.00;;;23.40;99.90;;;;;;5034025;28;20022;-79
2022/01/28 11:21:36;;;;;;;;;;;23.30;99.90;;;;;;5034801;28;20036;-76
2022/01/28 11:24:11;;;;;;;13.20;2.08;;;23.30;99.90;;;;;;5035458;28;19911;-78
2022/01/28 11:27:13;;;;;;;14.85;2.60;;;23.30;99.90;;;;;;5035636;28;20040;-78
2022/01/28 11:29:41;;;;;;;14.48;2.75;;;23.30;99.90;;;;;;5030147;28;20113;-79
2022/01/28 11:32:18;;;;;;;11.88;2.08;;;23.30;99.90;;;;;;5033927;28;20021;-79
2022/01/28 11:35:02;;;;;;;13.75;2.05;;;23.30;99.90;;;;;;5035568;28;20025;-78
2022/01/28 11:37:34;;;;;;;13.23;2.50;;;23.30;99.90;;;;;;5035723;28;20029;-79
2022/01/28 11:40:12;;;;;;;9.68;1.80;;;23.30;99.90;;;;;;5035319;28;20025;-79
2022/01/28 11:42:40;;;;;;;13.57;2.28;;;23.30;99.90;;;;;;5035295;28;20390;-79
2022/01/28 11:45:12;;;;;;;11.02;1.92;;;23.30;99.90;;;;;;5034697;28;20037;-79
2022/01/28 11:47:54;;;;;;;13.95;1.95;;;23.30;99.90;;;;;;5035160;28;20080;-77
2022/01/28 11:50:25;;;;;;;14.32;1.90;;;23.20;99.90;;;;;;5033941;28;20385;-78
2022/01/28 11:52:54;;;;;;;13.93;2.08;;;23.20;99.90;;;;;;5035120;28;20486;-78
2022/01/28 11:55:25;;;;;;;18.65;3.38;;;23.20;99.90;;;;;;5033842;28;20107;-79
2022/01/28 11:57:57;;;;;;;12.43;2.30;;;23.20;99.90;;;;;;5033769;28;20030;-78
2022/01/28 12:00:41;;;;;;;17.63;2.55;;;23.20;99.90;;;;;;5033605;28;20071;-79
2022/01/28 12:03:26;;;;;;;12.52;2.45;;;23.20;99.90;;;;;;5033561;28;20021;-77
2022/01/28 12:05:56;;;;;;;12.25;1.98;;;23.20;99.90;;;;;;5034745;28;20108;-78
2022/01/28 12:08:31;;;;;;;11.20;1.88;;;23.10;99.90;;;;;;5033253;28;20360;-78
2022/01/28 12:11:02;;;;;;;13.68;2.22;;;23.10;99.90;;;;;;5033090;28;20542;-77
2022/01/28 12:14:03;;;;;;;14.40;3.05;;;23.10;99.90;;;;;;5034360;28;20025;-77
2022/01/28 12:16:35;;;;;;;11.45;1.83;;;23.10;99.90;;;;;;5033103;28;20117;-78
2022/01/28 12:19:14;;;;;;;13.85;2.90;;;23.10;99.90;;;;;;5033095;28;20120;-79
2022/01/28 12:22:04;;;;;;;12.88;1.80;;;23.10;99.90;;;;;;5034386;28;20053;-78
2022/01/28 12:24:37;;;;;;;12.10;1.90;;;23.10;99.90;;;;;;5033028;28;20437;-79
2022/01/28 12:27:13;;;;;;;11.07;2.33;;;23.00;99.90;;;;;;5033050;28;20026;-78
2022/01/28 12:29:52;;;;;;;11.75;1.98;;;23.00;99.90;;;;;;5034116;28;20053;-78
2022/01/28 12:32:24;;;;;;;10.10;1.90;;;23.00;99.90;;;;;;5032925;28;20029;-79
2022/01/28 12:34:52;;;;;;;15.02;2.40;;;23.00;99.90;;;;;;5034201;28;20071;-78
2022/01/28 12:37:23;;;;;;;11.65;2.15;;;23.00;99.90;;;;;;5032628;28;20021;-78
2022/01/28 12:40:03;;;;;;;12.13;2.13;;;23.00;99.90;;;;;;5033693;28;20021;-78
2022/01/28 12:42:34;;;;;;;12.52;2.00;;;23.00;99.90;;;;;;5034041;28;20021;-78
2022/01/28 12:45:03;;;;;;;9.52;2.08;;;23.00;99.90;;;;;;5033844;28;20545;-77
2022/01/28 12:47:34;;;;;;;12.35;2.05;;;23.00;99.90;;;;;;5032608;28;20573;-79
2022/01/28 12:50:05;;;;;;;15.63;2.50;;;22.90;99.90;;;;;;5033877;28;20025;-79
2022/01/28 12:52:34;;;;;;;11.35;2.38;;;23.00;99.90;;;;;;5033632;28;20060;-79
2022/01/28 12:55:03;;;;;;;12.07;2.28;;;23.00;99.90;;;;;;5033526;28;20049;-78
2022/01/28 12:57:30;;;;;;;18.83;2.83;;;23.00;99.90;;;;;;5033838;28;20021;-80
2022/01/28 12:59:58;;;;;;;11.45;1.98;;;22.90;99.90;;;;;;5033918;28;20542;-77
2022/01/28 13:02:33;;;;;;;14.35;1.90;;;22.90;99.90;;;;;;5032615;28;20037;-78
2022/01/28 13:10:25;;;;;;;13.70;1.92;;;22.90;99.90;;;;;;5033783;28;20049;-77
2022/01/28 13:13:03;;;;;;;14.25;2.10;;;22.90;99.90;;;;;;5033552;28;20025;-77
2022/01/28 13:15:31;;;;;;;16.88;2.47;;;22.90;99.90;;;;;;5033384;28;20021;-77
2022/01/28 13:18:03;;;;;;;14.07;2.10;;;22.90;99.90;;;;;;5033298;28;20510;-78
2022/01/28 13:20:48;;;;;;;13.77;2.50;;;22.90;99.90;;;;;;5033270;28;20486;-77
2022/01/28 13:23:16;;;;;;;13.77;2.47;;;22.80;99.90;;;;;;5033174;28;20022;-78
2022/01/28 13:25:43;;;;;;;15.68;2.90;;;22.80;99.90;;;;;;5031726;28;20022;-78
2022/01/28 13:28:19;;;;;;;15.32;3.03;;;22.80;99.90;;;;;;5031892;28;20049;-78
2022/01/28 13:30:57;;;;;;;14.68;2.58;;;22.80;99.90;;;;;;5033178;28;20389;-78
2022/01/28 13:33:30;;;;;;;15.00;2.50;;;22.80;99.90;;;;;;5015307;28;20021;-76
2022/01/28 13:35:59;;;;;;;16.20;2.35;;;22.80;99.90;;;;;;5033159;28;20026;-78
2022/01/28 13:38:33;;;;;;;12.88;2.40;;;22.80;99.90;;;;;;5032925;28;20025;-76
2022/01/28 13:41:17;;;;;;;14.60;1.95;;;22.80;99.90;;;;;;5033088;28;20021;-77
2022/01/28 13:43:45;;;;;;;18.20;2.97;;;22.70;99.90;;;;;;5031842;28;20432;-78
2022/01/28 13:46:16;;;;;;;11.32;2.40;;;22.70;99.90;;;;;;5032640;28;20184;-77
2022/01/28 13:48:47;;;;;;;14.18;1.90;;;22.70;99.90;;;;;;5032984;28;20014;-77
2022/01/28 13:51:17;;;;;;;14.05;2.17;;;22.70;99.90;;;;;;5034384;28;20386;-77
2022/01/28 13:56:44;;;;;;;16.65;2.22;;;22.70;99.90;;;;;;5036874;28;20126;-77
2022/01/28 13:59:17;;;;;;;13.13;2.13;;;22.70;99.90;;;;;;5036946;28;20025;-77
2022/01/28 14:01:47;;;;;;;15.52;2.45;;;22.60;99.90;;;;;;5036885;28;20461;-77
2022/01/28 14:04:22;;;;;;;13.55;1.95;;;22.70;99.90;;;;;;5036710;28;20478;-76
2022/01/28 14:06:50;;;;;;;10.52;1.95;;;22.60;99.90;;;;;;5036673;28;20525;-77
2022/01/28 14:09:21;;;;;;;16.38;2.65;;;22.60;99.90;;;;;;5035321;28;20159;-77
2022/01/28 14:11:59;;;;;;;15.05;2.70;;;22.60;99.90;;;;;;5036682;28;20431;-77
2022/01/28 14:14:41;;;;;;;11.70;2.08;;;22.50;99.90;;;;;;5035389;28;20497;-78
2022/01/28 14:17:10;;;;;;;14.15;2.45;;;22.60;99.90;;;;;;5036653;28;20034;-77
2022/01/28 14:19:41;;;;;;;18.17;2.38;;;22.60;99.90;;;;;;5036479;28;20027;-79
2022/01/28 14:22:12;;;;;;;13.35;1.90;;;22.60;99.90;;;;;;5036521;28;20536;-77
2022/01/28 14:24:40;;;;;;;13.23;2.78;;;22.50;99.90;;;;;;5036475;28;20021;-77
2022/01/28 14:32:18;;;;;;;16.20;2.80;;;22.50;99.90;;;;;;5036345;28;20018;-77
2022/01/28 14:34:47;;;;;;;13.25;2.25;;;22.50;99.90;;;;;;5036217;28;20014;-77